Time;durP1;ratioP1;P1;durP2;ratioP2;P2;SDS_P1;SDS_P2;PMS_P1;PMS_P2;Temp;Humidity;BMP_temperature;BMP_pressure;BME280_temperature;BME280_humidity;BME280_pressure;Samples;Min_cycle;Max_cycle;Signal;HPM_P1;HPM_P2
2022/10/03 00:01:25;;;;;;;;;;;;;;;12.72;68.16;102079.19;5030351;28;19925;-78
2022/10/03 00:04:06;;;;;;;;;;;;;;;12.74;68.60;102080.03;5030010;28;19921;-78
2022/10/03 00:06:47;;;;;;;;;;;;;;;12.70;68.80;102081.78;5027673;28;19928;-78
2022/10/03 00:09:33;;;;;;;;;;;;;;;12.68;68.78;102088.78;5029013;28;19920;-78
2022/10/03 00:12:13;;;;;;;;;;;;;;;12.71;68.50;102091.34;5024764;28;19917;-78
2022/10/03 00:14:57;;;;;;;;;;;;;;;12.64;68.68;102094.88;5051775;28;19928;-78
2022/10/03 00:17:26;;;;;;;;;;;;;;;12.57;68.46;102095.81;5049500;28;19998;-78
2022/10/03 00:19:51;;;;;;;;;;;;;;;12.56;68.56;102102.78;5050526;28;20028;-78
2022/10/03 00:22:36;;;;;;;;;;;;;;;12.58;69.20;102106.22;5052056;28;20098;-78
2022/10/03 00:25:20;;;;;;;;;;;;;;;12.67;68.55;102105.28;5047401;28;19921;-78
2022/10/03 00:27:45;;;;;;;;;;;;;;;12.69;68.61;102110.50;5053749;28;20007;-78
2022/10/03 00:30:18;;;;;;;;;;;;;;;12.58;68.97;102124.47;5053893;28;20039;-78
2022/10/03 00:32:46;;;;;;;;;;;;;;;12.57;68.79;102129.72;5047869;28;20266;-78
2022/10/03 00:35:19;;;;;;;;;;;;;;;12.57;68.63;102127.94;5049254;28;19932;-78
2022/10/03 00:37:49;;;;;;;;;;;;;;;12.50;68.92;102127.97;5056166;28;20130;-78
2022/10/03 00:40:32;;;;;;;;;;;;;;;12.59;68.87;102130.56;5048653;28;19928;-78
2022/10/03 00:43:21;;;;;;;;;;;;;;;12.60;69.14;102132.31;5034231;28;19921;-78
2022/10/03 00:46:09;;;;;;;;;;;;;;;12.54;68.83;102124.53;5033497;28;19921;-78
2022/10/03 00:48:53;;;;;;;;;;;;;;;12.47;68.57;102131.47;5020349;28;19930;-78
2022/10/03 00:51:38;;;;;;;;;;;;;;;12.49;68.91;102139.28;5027200;28;20436;-78
2022/10/03 00:54:15;;;;;;;;;;;;;;;12.47;68.81;102138.44;5028448;28;19921;-77
2022/10/03 00:56:56;;;;;;;;;;;;;;;12.55;68.36;102137.53;5029052;28;19963;-78
2022/10/03 00:59:32;;;;;;;;;;;;;;;12.46;68.99;102136.69;5031709;28;19933;-78
2022/10/03 01:01:58;;;;;;;;;;;;;;;12.43;69.13;102136.72;5037608;28;19925;-78
2022/10/03 01:04:42;;;;;;;;;;;;;;;12.48;68.91;102132.34;5033298;28;20000;-78
2022/10/03 01:07:11;;;;;;;;;;;;;;;12.44;68.83;102135.84;5041843;28;19925;-78
2022/10/03 01:09:46;;;;;;;;;;;;;;;12.41;68.91;102136.75;5025783;28;19922;-78
2022/10/03 01:12:24;;;;;;;;;;;;;;;12.50;68.67;102141.88;5027348;28;19917;-78
2022/10/03 01:15:02;;;;;;;;;;;;;;;12.44;68.97;102138.44;5030807;28;19955;-78
2022/10/03 01:17:43;;;;;;;;;;;;;;;12.46;69.11;102144.50;5015262;28;19982;-78
2022/10/03 01:20:26;;;;;;;;;;;;;;;12.39;68.63;102135.91;5034051;28;20011;-78
2022/10/03 01:22:55;;;;;;;;;;;;;;;12.40;68.70;102137.59;5024868;28;20073;-78
2022/10/03 01:25:20;;;;;;;;;;;;;;;12.42;68.76;102132.41;5046569;28;20000;-78
2022/10/03 01:30:56;;;;;;;;;;;;;;;12.30;68.42;102135.94;5025262;28;19928;-78
2022/10/03 01:33:23;;;;;;;;;;;;;;;12.40;68.67;102132.38;5046334;28;20404;-78
2022/10/03 01:35:48;;;;;;;;;;;;;;;12.39;69.03;102130.69;5028570;28;20370;-78
2022/10/03 01:38:35;;;;;;;;;;;;;;;12.38;69.34;102128.06;5025873;28;19979;-78
2022/10/03 01:41:03;;;;;;;;;;;;;;;12.43;68.39;102132.38;5023695;28;19929;-78
2022/10/03 01:43:48;;;;;;;;;;;;;;;12.41;68.43;102131.53;5032700;28;19925;-78
2022/10/03 01:46:16;;;;;;;;;;;;;;;12.42;68.58;102130.63;5033408;28;19932;-78
2022/10/03 01:48:41;;;;;;;;;;;;;;;12.39;68.64;102129.81;5045026;28;19990;-78
2022/10/03 01:51:06;;;;;;;;;;;;;;;12.37;68.89;102135.00;5037255;28;19929;-77
2022/10/03 01:53:37;;;;;;;;;;;;;;;12.31;69.17;102134.19;5032619;28;20313;-78
2022/10/03 01:56:18;;;;;;;;;;;;;;;12.39;69.02;102130.69;5030537;28;19928;-78
2022/10/03 01:58:44;;;;;;;;;;;;;;;12.40;68.95;102131.53;5029320;28;19928;-78
2022/10/03 02:01:48;;;;;;;;;;;;;;;12.37;68.88;102144.56;5031414;28;19925;-78
2022/10/03 02:04:21;;;;;;;;;;;;;;;12.44;68.55;102144.53;4975950;28;20039;-78
2022/10/03 02:07:05;;;;;;;;;;;;;;;12.48;68.52;102148.00;4958861;28;19925;-78
2022/10/03 02:09:37;;;;;;;;;;;;;;;12.57;67.88;102153.19;5013224;28;19921;-78
2022/10/03 02:12:08;;;;;;;;;;;;;;;12.53;68.04;102154.06;5031601;28;19917;-78
2022/10/03 02:14:46;;;;;;;;;;;;;;;12.47;68.60;102149.72;5052849;28;19925;-78
2022/10/03 02:17:30;;;;;;;;;;;;;;;12.60;67.95;102160.97;5051305;28;20504;-78
2022/10/03 02:20:14;;;;;;;;;;;;;;;12.46;68.20;102158.41;5056452;28;20382;-78
2022/10/03 02:22:41;;;;;;;;;;;;;;;12.54;67.92;102161.03;5043537;28;20302;-78
2022/10/03 02:25:25;;;;;;;;;;;;;;;12.47;68.33;102160.16;5046832;28;19928;-78
2022/10/03 02:27:54;;;;;;;;;;;;;;;12.45;68.20;102172.31;5048522;28;20601;-78
2022/10/03 02:30:48;;;;;;;;;;;;;;;12.51;67.92;102163.59;5048271;28;20343;-78
2022/10/03 02:33:13;;;;;;;;;;;;;;;12.47;67.56;102162.75;4960127;28;19914;-78
2022/10/03 02:35:48;;;;;;;;;;;;;;;12.56;67.93;102165.34;5050020;28;19920;-78
2022/10/03 02:38:13;;;;;;;;;;;;;;;12.57;66.80;102159.22;5050645;28;20050;-77
2022/10/03 02:40:47;;;;;;;;;;;;;;;12.57;67.25;102161.84;5051760;28;20015;-78
2022/10/03 02:43:31;;;;;;;;;;;;;;;12.54;67.12;102159.25;5052415;28;20328;-78
2022/10/03 02:46:15;;;;;;;;;;;;;;;12.57;68.30;102161.84;5054781;28;19920;-78
2022/10/03 02:48:48;;;;;;;;;;;;;;;12.56;67.85;102160.13;5043022;28;20387;-78
2022/10/03 02:51:32;;;;;;;;;;;;;;;12.57;67.77;102161.00;5049728;28;19967;-78
2022/10/03 02:53:57;;;;;;;;;;;;;;;12.56;67.66;102160.13;5047534;28;19930;-78
2022/10/03 02:56:31;;;;;;;;;;;;;;;12.71;67.58;102166.09;5049096;28;19932;-78
2022/10/03 02:59:00;;;;;;;;;;;;;;;12.67;68.04;102160.03;5047765;28;20377;-78
2022/10/03 03:01:25;;;;;;;;;;;;;;;12.48;67.38;102161.84;5051881;28;19974;-78
2022/10/03 03:04:05;;;;;;;;;;;;;;;12.52;68.46;102162.72;5033448;28;19921;-78
2022/10/03 03:06:36;;;;;;;;;;;;;;;12.54;68.16;102163.63;5032558;28;20012;-78
2022/10/03 03:09:13;;;;;;;;;;;;;;;12.49;68.09;102162.72;5027004;28;20473;-78
2022/10/03 03:11:58;;;;;;;;;;;;;;;12.57;68.33;102164.44;5050999;28;19916;-78
2022/10/03 03:14:26;;;;;;;;;;;;;;;12.50;67.82;102162.75;5048262;28;20007;-78
2022/10/03 03:17:10;;;;;;;;;;;;;;;12.48;68.01;102163.63;5049810;28;20008;-78
2022/10/03 03:19:35;;;;;;;;;;;;;;;12.40;68.69;102175.81;5049654;28;19920;-78
2022/10/03 03:22:15;;;;;;;;;;;;;;;12.41;68.08;102178.44;5054306;28;20294;-78
2022/10/03 03:24:40;;;;;;;;;;;;;;;12.48;68.04;102190.53;5042814;28;20404;-78
2022/10/03 03:27:24;;;;;;;;;;;;;;;12.41;67.96;102188.84;5031517;28;19921;-78
2022/10/03 03:29:49;;;;;;;;;;;;;;;12.35;68.16;102188.91;5048327;28;19909;-78
2022/10/03 03:32:20;;;;;;;;;;;;;;;12.36;68.02;102184.56;5044887;28;20003;-78
2022/10/03 03:34:58;;;;;;;;;;;;;;;12.32;68.03;102194.13;5056910;28;19942;-78
2022/10/03 03:37:29;;;;;;;;;;;;;;;12.31;68.71;102192.38;5057047;28;20356;-78
2022/10/03 03:39:57;;;;;;;;;;;;;;;12.29;68.74;102196.75;5047957;28;19936;-78
2022/10/03 03:42:22;;;;;;;;;;;;;;;12.22;68.28;102194.16;5052789;28;19936;-78
2022/10/03 03:44:59;;;;;;;;;;;;;;;12.25;68.19;102201.97;5062047;28;20343;-78
2022/10/03 03:47:35;;;;;;;;;;;;;;;12.15;68.59;102192.47;5044121;28;20027;-78
2022/10/03 03:50:19;;;;;;;;;;;;;;;12.20;68.29;102199.41;5047324;28;19921;-78
2022/10/03 03:52:56;;;;;;;;;;;;;;;12.13;68.67;102197.69;5045915;28;19927;-78
2022/10/03 03:55:40;;;;;;;;;;;;;;;12.13;68.46;102202.06;5044485;28;19927;-78
2022/10/03 03:58:17;;;;;;;;;;;;;;;12.13;68.92;102202.06;5031605;28;19929;-78
2022/10/03 04:00:45;;;;;;;;;;;;;;;12.12;68.30;102203.78;5044898;28;20001;-78
2022/10/03 04:03:24;;;;;;;;;;;;;;;12.05;68.37;102204.66;5047760;28;19917;-77
2022/10/03 04:05:52;;;;;;;;;;;;;;;12.11;68.28;102199.44;5049413;28;20329;-78
2022/10/03 04:08:25;;;;;;;;;;;;;;;12.10;68.88;102205.50;5048778;28;20002;-78
2022/10/03 04:11:11;;;;;;;;;;;;;;;12.09;68.38;102201.19;5050055;28;19965;-78
2022/10/03 04:13:36;;;;;;;;;;;;;;;12.13;68.46;102200.28;5048373;28;19924;-78
2022/10/03 04:19:37;;;;;;;;;;;;;;;12.09;68.93;102209.88;5058299;28;19928;-78
2022/10/03 04:22:17;;;;;;;;;;;;;;;12.10;68.48;102214.19;5035127;28;19932;-78
2022/10/03 04:25:02;;;;;;;;;;;;;;;12.10;68.85;102218.53;5048629;28;19929;-78
2022/10/03 04:27:37;;;;;;;;;;;;;;;12.12;69.22;102211.59;5043118;28;19921;-78
2022/10/03 04:30:16;;;;;;;;;;;;;;;12.16;68.90;102215.03;5047307;28;20388;-76
2022/10/03 04:32:41;;;;;;;;;;;;;;;12.16;68.95;102215.03;5047641;28;20004;-78
2022/10/03 04:35:14;;;;;;;;;;;;;;;12.05;69.58;102217.69;5046497;28;20015;-78
2022/10/03 04:37:48;;;;;;;;;;;;;;;12.07;69.11;102213.34;5047532;28;19986;-78
2022/10/03 04:40:16;;;;;;;;;;;;;;;12.07;69.55;102214.22;5045661;28;19979;-78
2022/10/03 04:42:54;;;;;;;;;;;;;;;12.12;69.59;102216.81;5049331;28;20411;-78
2022/10/03 04:45:35;;;;;;;;;;;;;;;12.14;68.57;102217.66;5047826;28;19920;-78
2022/10/03 04:48:03;;;;;;;;;;;;;;;12.10;68.75;102215.94;5048325;28;19917;-78
2022/10/03 04:50:41;;;;;;;;;;;;;;;12.04;68.92;102214.22;5035967;28;20458;-78
2022/10/03 04:53:06;;;;;;;;;;;;;;;12.01;69.08;102218.56;5030091;28;20439;-78
2022/10/03 04:55:50;;;;;;;;;;;;;;;12.06;68.78;102222.91;5046859;28;19924;-78
2022/10/03 04:58:30;;;;;;;;;;;;;;;12.08;68.59;102222.88;5050433;28;19924;-78
2022/10/03 05:01:05;;;;;;;;;;;;;;;12.05;69.49;102215.97;5043550;28;19925;-78
2022/10/03 05:03:48;;;;;;;;;;;;;;;12.00;70.02;102219.47;5048126;28;19931;-78
2022/10/03 05:06:34;;;;;;;;;;;;;;;12.03;69.79;102227.25;5043465;28;20023;-78
2022/10/03 05:09:03;;;;;;;;;;;;;;;12.12;69.73;102216.81;5043407;28;20017;-78
2022/10/03 05:11:39;;;;;;;;;;;;;;;12.03;69.49;102222.94;5028832;28;20294;-78
2022/10/03 05:14:11;;;;;;;;;;;;;;;12.02;69.83;102222.91;5041615;28;19936;-78
2022/10/03 05:16:36;;;;;;;;;;;;;;;12.03;69.82;102222.06;5047337;28;20404;-78
2022/10/03 05:19:13;;;;;;;;;;;;;;;11.98;70.03;102219.44;5046240;28;19921;-78
2022/10/03 05:21:44;;;;;;;;;;;;;;;12.01;70.42;102222.03;5037874;28;19933;-78
2022/10/03 05:24:09;;;;;;;;;;;;;;;12.00;69.66;102222.94;5044417;28;19956;-77
2022/10/03 05:26:34;;;;;;;;;;;;;;;12.07;69.79;102227.22;5048283;28;20018;-78
2022/10/03 05:29:09;;;;;;;;;;;;;;;12.10;70.50;102229.81;5048622;28;19928;-78
2022/10/03 05:31:44;;;;;;;;;;;;;;;12.13;69.97;102233.31;5046164;28;19932;-78
2022/10/03 05:34:22;;;;;;;;;;;;;;;12.13;70.16;102242.84;5043451;28;19932;-78
2022/10/03 05:36:50;;;;;;;;;;;;;;;12.10;69.52;102248.06;5045362;28;19960;-78
2022/10/03 05:39:34;;;;;;;;;;;;;;;12.08;69.81;102244.59;5047628;28;19924;-78
2022/10/03 05:42:18;;;;;;;;;;;;;;;12.09;70.23;102242.88;5048447;28;20443;-78
2022/10/03 05:45:03;;;;;;;;;;;;;;;12.09;70.22;102258.50;5043668;28;19929;-78
2022/10/03 05:47:49;;;;;;;;;;;;;;;12.09;70.14;102258.50;5044549;28;19930;-78
2022/10/03 05:50:32;;;;;;;;;;;;;;;12.09;70.53;102248.94;5050913;28;20138;-78
2022/10/03 05:53:10;;;;;;;;;;;;;;;12.03;70.68;102253.31;5048301;28;19932;-78
2022/10/03 05:55:41;;;;;;;;;;;;;;;12.02;70.24;102251.56;5046372;28;19920;-78
2022/10/03 05:58:16;;;;;;;;;;;;;;;12.04;69.94;102252.41;5049080;28;20289;-78
2022/10/03 06:00:57;;;;;;;;;;;;;;;12.05;70.03;102246.34;5041306;28;19921;-78
2022/10/03 06:03:22;;;;;;;;;;;;;;;12.00;70.19;102245.50;5046344;28;20015;-78
2022/10/03 06:05:58;;;;;;;;;;;;;;;12.03;69.70;102254.19;5049249;28;20011;-78
2022/10/03 06:08:38;;;;;;;;;;;;;;;12.00;69.62;102253.31;5048666;28;20402;-78
2022/10/03 06:11:30;;;;;;;;;;;;;;;12.01;69.52;102257.63;5027511;28;20378;-78
2022/10/03 06:14:02;;;;;;;;;;;;;;;11.94;69.99;102263.75;5040351;28;19978;-78
2022/10/03 06:16:37;;;;;;;;;;;;;;;11.97;69.79;102255.94;5041716;28;19921;-78
2022/10/03 06:19:25;;;;;;;;;;;;;;;12.04;69.82;102265.44;5041617;28;19967;-79
2022/10/03 06:22:02;;;;;;;;;;;;;;;11.93;69.54;102267.22;5031170;28;19929;-79
2022/10/03 06:24:46;;;;;;;;;;;;;;;12.08;70.13;102267.16;5050608;28;19967;-78
2022/10/03 06:27:14;;;;;;;;;;;;;;;12.00;70.05;102269.81;5029457;28;20403;-78
2022/10/03 06:30:10;;;;;;;;;;;;;;;11.97;70.57;102274.16;5053023;28;19919;-78
2022/10/03 06:32:35;;;;;;;;;;;;;;;12.07;70.15;102270.63;5008806;28;20353;-78
2022/10/03 06:35:16;;;;;;;;;;;;;;;12.08;69.88;102273.25;5030372;28;19960;-78
2022/10/03 06:38:00;;;;;;;;;;;;;;;12.08;69.75;102272.38;5027157;28;19975;-78
2022/10/03 06:40:46;;;;;;;;;;;;;;;12.06;70.34;102277.63;5027533;28;19963;-79
2022/10/03 06:43:15;;;;;;;;;;;;;;;12.04;69.83;102281.94;5035803;28;19933;-79
2022/10/03 06:45:43;;;;;;;;;;;;;;;12.05;70.31;102283.69;5049193;28;19937;-78
2022/10/03 06:48:30;;;;;;;;;;;;;;;12.05;70.09;102277.59;5053263;28;19917;-79
2022/10/03 06:50:59;;;;;;;;;;;;;;;12.05;70.81;102277.59;5059774;28;19913;-79
2022/10/03 06:53:32;;;;;;;;;;;;;;;12.16;70.13;102282.75;5045672;28;19925;-78
2022/10/03 06:56:30;;;;;;;;;;;;;;;12.21;70.55;102281.91;5050375;28;19932;-79
2022/10/03 06:58:58;;;;;;;;;;;;;;;12.29;69.96;102285.34;5052623;28;20409;-78
2022/10/03 07:01:39;;;;;;;;;;;;;;;12.30;69.81;102283.59;5048044;28;20368;-78
2022/10/03 07:04:04;;;;;;;;;;;;;;;12.21;70.60;102286.25;5046547;28;20159;-78
2022/10/03 07:06:48;;;;;;;;;;;;;;;12.30;70.42;102291.41;5061098;28;20385;-78
2022/10/03 07:09:19;;;;;;;;;;;;;;;12.25;70.58;102287.94;5051387;28;19921;-78
2022/10/03 07:12:00;;;;;;;;;;;;;;;12.21;71.42;102283.63;5036304;28;19920;-78
2022/10/03 07:14:38;;;;;;;;;;;;;;;12.24;71.15;102284.50;5051019;28;19967;-78
2022/10/03 07:17:14;;;;;;;;;;;;;;;12.31;71.08;102294.00;5052099;28;19925;-78
2022/10/03 07:19:49;;;;;;;;;;;;;;;12.32;71.52;102293.13;5058047;28;20443;-78
2022/10/03 07:22:14;;;;;;;;;;;;;;;12.32;71.69;102287.94;5050887;28;19974;-78
2022/10/03 07:24:58;;;;;;;;;;;;;;;12.44;70.00;102292.22;5048644;28;19921;-78
2022/10/03 07:27:42;;;;;;;;;;;;;;;12.46;70.20;102291.34;5052105;28;19939;-78
2022/10/03 07:30:20;;;;;;;;;;;;;;;12.48;69.58;102300.00;5055764;28;19942;-78
2022/10/03 07:33:05;;;;;;;;;;;;;;;12.48;69.83;102299.16;5039384;28;21816;-78
2022/10/03 07:38:56;;;;;;;;;;;;;;;12.55;69.35;102300.88;5050628;28;20450;-78
2022/10/03 07:41:15;;;;;;;;;;;;;;;12.61;69.94;102308.66;5049985;28;19985;-78
2022/10/03 07:43:46;;;;;;;;;;;;;;;12.64;70.03;102303.44;5053054;28;20440;-78
2022/10/03 07:46:30;;;;;;;;;;;;;;;12.66;69.13;102314.75;5048080;28;19921;-78
2022/10/03 07:49:14;;;;;;;;;;;;;;;12.68;69.44;102313.00;5031229;28;19962;-78
2022/10/03 07:51:59;;;;;;;;;;;;;;;12.74;70.03;102312.97;5048943;28;19920;-78
2022/10/03 07:54:36;;;;;;;;;;;;;;;12.76;69.98;102319.03;5052006;28;19959;-78
2022/10/03 07:57:08;;;;;;;;;;;;;;;12.81;69.45;102324.22;5054374;28;19909;-78
2022/10/03 08:00:06;;;;;;;;;;;;;;;12.91;69.33;102325.91;5032223;28;19922;-78
2022/10/03 08:02:40;;;;;;;;;;;;;;;12.85;69.81;102328.53;4995016;28;20016;-78
2022/10/03 08:05:06;;;;;;;;;;;;;;;12.88;70.01;102336.34;5032805;28;19932;-78
2022/10/03 08:07:51;;;;;;;;;;;;;;;12.92;69.46;102328.50;5050879;28;20594;-78
2022/10/03 08:10:47;;;;;;;;;;;;;;;12.94;69.71;102328.47;5051564;28;20370;-78
2022/10/03 08:13:12;;;;;;;;;;;;;;;12.88;69.76;102338.94;5064517;28;19921;-78
2022/10/03 08:15:56;;;;;;;;;;;;;;;12.89;69.07;102330.25;5029465;28;19921;-78
2022/10/03 08:18:40;;;;;;;;;;;;;;;12.93;68.40;102324.13;5031418;28;19924;-78
2022/10/03 08:21:19;;;;;;;;;;;;;;;12.89;69.46;102338.97;5029399;28;20336;-78
2022/10/03 08:23:47;;;;;;;;;;;;;;;12.89;68.20;102332.88;5029110;28;19925;-78
2022/10/03 08:26:13;;;;;;;;;;;;;;;12.90;68.41;102338.06;5029168;28;20007;-78
2022/10/03 08:28:57;;;;;;;;;;;;;;;12.85;69.04;102344.19;5033744;28;20633;-78
2022/10/03 08:31:41;;;;;;;;;;;;;;;12.88;68.84;102347.66;5031042;28;19951;-78
2022/10/03 08:34:06;;;;;;;;;;;;;;;12.85;69.34;102345.06;5033605;28;19928;-78
2022/10/03 08:36:34;;;;;;;;;;;;;;;12.83;69.51;102346.81;5029682;28;19921;-78
2022/10/03 08:39:10;;;;;;;;;;;;;;;12.88;70.00;102354.59;5024744;28;19945;-78
2022/10/03 08:41:57;;;;;;;;;;;;;;;12.89;70.06;102352.00;5025023;28;20398;-78
2022/10/03 08:44:45;;;;;;;;;;;;;;;13.01;69.41;102351.06;5036128;28;19921;-78
2022/10/03 08:47:24;;;;;;;;;;;;;;;12.95;68.53;102340.66;5033305;28;19928;-78
2022/10/03 08:49:55;;;;;;;;;;;;;;;13.03;69.97;102344.09;5030411;28;19950;-77
2022/10/03 08:52:26;;;;;;;;;;;;;;;13.06;69.49;102344.06;5033983;28;19917;-78
2022/10/03 08:54:51;;;;;;;;;;;;;;;13.03;70.62;102344.94;5024166;28;19920;-78
2022/10/03 08:57:25;;;;;;;;;;;;;;;13.01;70.57;102349.31;5046955;28;20458;-78
2022/10/03 09:00:09;;;;;;;;;;;;;;;13.08;69.61;102351.00;5021665;28;19929;-78
2022/10/03 09:02:47;;;;;;;;;;;;;;;13.14;69.48;102342.25;5010579;28;19925;-78
2022/10/03 09:05:31;;;;;;;;;;;;;;;13.20;70.45;102345.69;5027808;28;19957;-78
2022/10/03 09:08:15;;;;;;;;;;;;;;;13.30;69.42;102345.66;5027617;28;19913;-78
2022/10/03 09:10:46;;;;;;;;;;;;;;;13.33;69.87;102350.84;5029953;28;20008;-78
2022/10/03 09:13:21;;;;;;;;;;;;;;;13.15;70.10;102350.09;5028997;28;20279;-78
2022/10/03 09:16:09;;;;;;;;;;;;;;;13.30;69.78;102345.66;5059628;28;19966;-78
2022/10/03 09:18:53;;;;;;;;;;;;;;;13.34;69.12;102347.38;5030422;28;19930;-78
2022/10/03 09:21:37;;;;;;;;;;;;;;;13.29;68.72;102343.91;5054168;28;19940;-78
2022/10/03 09:24:03;;;;;;;;;;;;;;;13.34;69.14;102347.38;5029305;28;19921;-78
2022/10/03 09:26:41;;;;;;;;;;;;;;;13.38;68.62;102347.31;5038871;28;19921;-78
2022/10/03 09:29:25;;;;;;;;;;;;;;;13.39;68.91;102343.84;5009680;28;19931;-78
2022/10/03 09:32:23;;;;;;;;;;;;;;;13.44;70.03;102343.78;5046528;28;19917;-78
2022/10/03 09:34:54;;;;;;;;;;;;;;;13.39;69.92;102345.56;5016270;28;20388;-78
2022/10/03 09:37:38;;;;;;;;;;;;;;;13.45;69.68;102348.16;5049266;28;19990;-78
2022/10/03 09:40:32;;;;;;;;;;;;;;;13.45;68.26;102342.91;5031414;28;20399;-78
2022/10/03 09:43:03;;;;;;;;;;;;;;;13.45;68.69;102346.41;4981368;28;19975;-78
2022/10/03 09:45:29;;;;;;;;;;;;;;;13.50;68.68;102342.00;5045328;28;19921;-78
2022/10/03 09:48:13;;;;;;;;;;;;;;;13.52;69.06;102342.00;5057290;28;20004;-78
2022/10/03 09:50:54;;;;;;;;;;;;;;;13.58;69.30;102340.19;5032583;28;19967;-78
2022/10/03 09:53:42;;;;;;;;;;;;;;;13.58;69.04;102337.56;5044078;28;19994;-78
2022/10/03 09:56:07;;;;;;;;;;;;;;;13.57;69.08;102329.78;5037636;28;19925;-78
2022/10/03 09:58:49;;;;;;;;;;;;;;;13.58;69.17;102332.34;5049267;28;19923;-78
2022/10/03 10:01:20;;;;;;;;;;;;;;;13.58;69.17;102321.91;5047671;28;19928;-78
2022/10/03 10:03:46;;;;;;;;;;;;;;;13.59;68.75;102318.44;5044444;28;19922;-78
2022/10/03 10:06:15;;;;;;;;;;;;;;;13.69;68.21;102319.25;5054192;28;19948;-78
2022/10/03 10:08:59;;;;;;;;;;;;;;;13.75;69.46;102321.81;5056050;28;19931;-78
2022/10/03 10:11:42;;;;;;;;;;;;;;;13.77;68.79;102320.03;5049889;28;19943;-78
2022/10/03 10:14:41;;;;;;;;;;;;;;;13.81;68.17;102313.03;5033289;28;20684;-78
2022/10/03 10:17:22;;;;;;;;;;;;;;;13.83;68.85;102316.50;5057694;28;19933;-78
2022/10/03 10:20:06;;;;;;;;;;;;;;;13.88;67.31;102304.28;5049988;28;19920;-77
2022/10/03 10:22:34;;;;;;;;;;;;;;;13.90;66.40;102305.13;5047499;28;19925;-78
2022/10/03 10:25:12;;;;;;;;;;;;;;;13.89;66.38;102313.81;5030617;28;20397;-78
2022/10/03 10:27:51;;;;;;;;;;;;;;;13.93;66.22;102315.53;5027535;28;20370;-78
2022/10/03 10:30:16;;;;;;;;;;;;;;;13.97;66.35;102319.81;5029908;28;19920;-78
2022/10/03 10:32:59;;;;;;;;;;;;;;;14.01;66.68;102314.56;5016105;28;19943;-78
2022/10/03 10:35:36;;;;;;;;;;;;;;;13.99;65.49;102320.69;5034380;28;20407;-78
2022/10/03 10:38:24;;;;;;;;;;;;;;;14.00;66.45;102314.56;5022348;28;20008;-77
2022/10/03 10:41:05;;;;;;;;;;;;;;;14.01;67.20;102311.09;5025310;28;20007;-77
2022/10/03 10:43:49;;;;;;;;;;;;;;;14.03;66.52;102310.19;5027355;28;20018;-78
2022/10/03 10:46:26;;;;;;;;;;;;;;;14.03;65.83;102306.69;5032325;28;19917;-78
2022/10/03 10:48:58;;;;;;;;;;;;;;;14.08;66.27;102307.53;5036858;28;20295;-77
2022/10/03 10:51:35;;;;;;;;;;;;;;;14.15;65.84;102310.06;5037108;28;19931;-78
2022/10/03 10:54:31;;;;;;;;;;;;;;;14.12;64.23;102309.22;5030054;28;19971;-78
2022/10/03 10:57:13;;;;;;;;;;;;;;;14.17;65.38;102307.44;5030363;28;19933;-78
2022/10/03 10:59:57;;;;;;;;;;;;;;;14.22;65.68;102305.63;5033668;28;19944;-78
2022/10/03 11:02:42;;;;;;;;;;;;;;;14.23;66.43;102308.22;5030135;28;19933;-78
2022/10/03 11:05:16;;;;;;;;;;;;;;;14.24;65.90;102303.84;5030467;28;20012;-78
2022/10/03 11:08:03;;;;;;;;;;;;;;;14.20;63.53;102294.34;5036426;28;19970;-78
2022/10/03 11:10:31;;;;;;;;;;;;;;;14.22;62.71;102296.03;5024475;28;20012;-78
2022/10/03 11:13:12;;;;;;;;;;;;;;;14.22;61.98;102296.03;5028231;28;19921;-78
2022/10/03 11:15:51;;;;;;;;;;;;;;;14.25;62.99;102293.38;5026220;28;20326;-78
2022/10/03 11:18:20;;;;;;;;;;;;;;;14.24;63.93;102291.66;5036046;28;19921;-78
2022/10/03 11:20:51;;;;;;;;;;;;;;;14.24;62.28;102285.56;5030959;28;19967;-78
2022/10/03 11:23:35;;;;;;;;;;;;;;;14.23;64.70;102289.91;5029643;28;19921;-78
2022/10/03 11:26:35;;;;;;;;;;;;;;;14.30;64.26;102286.34;5028010;28;19980;-77
2022/10/03 11:29:39;;;;;;;;;;;;;;;14.31;62.61;102284.59;5028809;28;19917;-78
2022/10/03 11:32:14;;;;;;;;;;;;;;;14.38;63.06;102281.03;4949901;28;19954;-78
2022/10/03 11:34:57;;;;;;;;;;;;;;;14.42;64.52;102287.06;5018486;28;19932;-78
2022/10/03 11:37:58;;;;;;;;;;;;;;;14.35;60.99;102281.09;5047338;28;19921;-78
2022/10/03 11:40:37;;;;;;;;;;;;;;;14.36;59.31;102284.53;4966954;28;19937;-78
2022/10/03 11:43:21;;;;;;;;;;;;;;;14.29;60.16;102281.16;5019239;28;19925;-78
2022/10/03 11:45:52;;;;;;;;;;;;;;;14.31;60.99;102272.41;5026772;28;19921;-78
2022/10/03 11:48:36;;;;;;;;;;;;;;;14.35;62.28;102274.97;5029234;28;20578;-78
2022/10/03 11:51:06;;;;;;;;;;;;;;;14.31;63.10;102275.03;5032745;28;20283;-79
2022/10/03 11:53:39;;;;;;;;;;;;;;;14.35;61.64;102275.84;5028335;28;19933;-78
2022/10/03 11:56:25;;;;;;;;;;;;;;;14.33;63.26;102270.63;5026277;28;19956;-78
2022/10/03 11:59:11;;;;;;;;;;;;;;;14.36;61.94;102272.34;5026490;28;19917;-78
2022/10/03 12:01:45;;;;;;;;;;;;;;;14.29;61.91;102263.69;5025489;28;20373;-78
2022/10/03 12:04:29;;;;;;;;;;;;;;;14.30;61.80;102257.59;5037135;28;19921;-78
2022/10/03 12:10:06;;;;;;;;;;;;;;;14.38;60.88;102267.09;5046059;28;19928;-78
2022/10/03 12:12:34;;;;;;;;;;;;;;;14.36;61.15;102256.66;5045823;28;20350;-78
2022/10/03 12:15:22;;;;;;;;;;;;;;;14.36;61.10;102258.38;5049170;28;20024;-78
2022/10/03 12:17:57;;;;;;;;;;;;;;;14.33;60.30;102260.16;5046602;28;19929;-78
2022/10/03 12:20:25;;;;;;;;;;;;;;;14.37;60.96;102257.53;5029740;28;20015;-78
2022/10/03 12:22:57;;;;;;;;;;;;;;;14.35;61.51;102259.28;5029103;28;19921;-78
2022/10/03 12:25:24;;;;;;;;;;;;;;;14.38;60.67;102254.91;5024347;28;20389;-78
2022/10/03 12:28:13;;;;;;;;;;;;;;;14.36;64.07;102261.88;5027363;28;19944;-78
2022/10/03 12:30:51;;;;;;;;;;;;;;;14.43;63.18;102265.28;5036120;28;20412;-78
2022/10/03 12:33:31;;;;;;;;;;;;;;;14.45;64.23;102267.00;5027645;28;19975;-79
2022/10/03 12:36:14;;;;;;;;;;;;;;;14.52;63.59;102262.53;5043609;28;20134;-78
2022/10/03 12:38:48;;;;;;;;;;;;;;;14.54;64.24;102263.38;5045090;28;19921;-74
2022/10/03 12:41:14;;;;;;;;;;;;;;;14.53;62.38;102253.81;5023043;28;19967;-74
2022/10/03 12:44:15;;;;;;;;;;;;;;;14.60;61.71;102248.47;5027137;28;19951;-74
2022/10/03 12:47:06;;;;;;;;;;;;;;;14.57;62.22;102242.41;4982589;28;19922;-74
2022/10/03 12:49:50;;;;;;;;;;;;;;;14.59;62.18;102244.13;5026833;28;19921;-74
2022/10/03 12:52:36;;;;;;;;;;;;;;;14.66;62.15;102256.25;5028716;28;19940;-74
2022/10/03 12:55:04;;;;;;;;;;;;;;;14.66;61.29;102242.28;5028449;28;19921;-74
2022/10/03 12:57:32;;;;;;;;;;;;;;;14.72;60.80;102236.97;5038093;28;19935;-74
2022/10/03 13:00:09;;;;;;;;;;;;;;;14.80;61.99;102242.97;5046593;28;19928;-74
2022/10/03 13:02:46;;;;;;;;;;;;;;;14.81;60.14;102244.72;5049564;28;19969;-74
2022/10/03 13:05:23;;;;;;;;;;;;;;;14.79;58.65;102239.53;5054613;28;19990;-74
2022/10/03 13:07:55;;;;;;;;;;;;;;;14.84;59.72;102236.81;5049171;28;19921;-75
2022/10/03 13:10:41;;;;;;;;;;;;;;;14.84;59.40;102231.59;5049692;28;19917;-74
2022/10/03 13:13:09;;;;;;;;;;;;;;;14.84;58.32;102228.97;5050261;28;19972;-74
2022/10/03 13:15:53;;;;;;;;;;;;;;;14.85;60.90;102234.19;5029874;28;19995;-74
2022/10/03 13:18:25;;;;;;;;;;;;;;;14.85;62.34;102231.59;5031663;28;19917;-74
2022/10/03 13:21:07;;;;;;;;;;;;;;;14.85;60.84;102234.19;5022603;28;19975;-74
2022/10/03 13:23:46;;;;;;;;;;;;;;;14.83;57.86;102230.72;5022602;28;20322;-74
2022/10/03 13:26:17;;;;;;;;;;;;;;;14.80;59.72;102230.75;5029291;28;20301;-74
2022/10/03 13:28:49;;;;;;;;;;;;;;;14.78;61.62;102239.53;5033405;28;19920;-74
2022/10/03 13:31:18;;;;;;;;;;;;;;;14.81;60.47;102229.88;5047212;28;20015;-74
2022/10/03 13:33:47;;;;;;;;;;;;;;;14.88;62.22;102233.28;5032493;28;20054;-74
2022/10/03 13:36:15;;;;;;;;;;;;;;;14.93;62.98;102230.56;5030520;28;19924;-74
2022/10/03 13:38:45;;;;;;;;;;;;;;;14.92;61.80;102224.47;5026161;28;19936;-73